Time;durP1;ratioP1;P1;durP2;ratioP2;P2;SDS_P1;SDS_P2;PMS_P1;PMS_P2;Temp;Humidity;BMP_temperature;BMP_pressure;BME280_temperature;BME280_humidity;BME280_pressure;Samples;Min_cycle;Max_cycle;Signal;HPM_P1;HPM_P2
2021/04/16 00:01:30;;;;;;;3.17;1.95;;;;;;;6.31;54.97;103207.84;5031438;28;20509;-83
2021/04/16 00:03:56;;;;;;;2.25;1.70;;;;;;;6.31;55.15;103210.47;5033498;28;20124;-84
2021/04/16 00:06:23;;;;;;;3.60;1.85;;;;;;;6.30;55.28;103208.69;5031034;28;20026;-83
2021/04/16 00:08:50;;;;;;;2.70;1.80;;;;;;;6.30;55.20;103203.41;5033958;28;20026;-84
2021/04/16 00:11:21;;;;;;;7.32;2.33;;;;;;;6.32;55.18;103200.00;5045500;28;20031;-84
2021/04/16 00:13:48;;;;;;;2.90;2.08;;;;;;;6.28;55.33;103199.81;5033549;28;20033;-84
2021/04/16 00:16:18;;;;;;;3.00;1.70;;;;;;;6.29;55.28;103197.28;5030731;28;20026;-84
2021/04/16 00:18:46;;;;;;;4.35;2.13;;;;;;;6.27;55.32;103196.31;5033554;28;20028;-84
2021/04/16 00:21:13;;;;;;;5.63;1.98;;;;;;;6.25;55.26;103187.44;5033285;28;20035;-84
2021/04/16 00:23:40;;;;;;;3.78;2.05;;;;;;;6.24;55.35;103185.69;5039347;28;20393;-84
2021/04/16 00:26:08;;;;;;;2.38;1.80;;;;;;;6.22;55.41;103186.44;5032015;28;20017;-83
2021/04/16 00:28:35;;;;;;;3.40;2.00;;;;;;;6.20;55.50;103177.63;5036096;28;20025;-84
2021/04/16 00:31:11;;;;;;;3.38;2.03;;;;;;;6.20;55.29;103182.88;5034300;28;20021;-84
2021/04/16 00:33:47;;;;;;;4.05;2.47;;;;;;;6.18;55.30;103179.28;5033026;28;20084;-83
2021/04/16 00:36:21;;;;;;;4.35;2.08;;;;;;;6.14;55.74;103166.03;5032662;28;20045;-84
2021/04/16 00:38:53;;;;;;;3.28;2.08;;;;;;;6.11;55.46;103171.16;5031356;28;20469;-84
2021/04/16 00:41:32;;;;;;;5.93;1.83;;;;;;;6.12;55.65;103165.06;5032562;28;20491;-84
2021/04/16 00:43:59;;;;;;;3.60;1.50;;;;;;;6.07;55.80;103168.38;5032789;28;20044;-84
2021/04/16 00:49:21;;;;;;;2.97;1.90;;;;;;;6.08;55.29;103168.44;5070687;27;20824;-83
2021/04/16 00:51:54;;;;;;;2.15;1.58;;;;;;;6.08;55.17;103163.19;5048022;28;20041;-84
2021/04/16 00:54:25;;;;;;;3.28;1.90;;;;;;;6.04;55.62;103166.53;5048840;28;20029;-84
2021/04/16 00:56:53;;;;;;;4.20;1.58;;;;;;;5.99;55.23;103158.47;5048831;28;20438;-84
2021/04/16 00:59:25;;;;;;;2.90;2.05;;;;;;;5.97;55.34;103164.50;5048919;28;20053;-84
2021/04/16 01:01:52;;;;;;;4.65;1.95;;;;;;;5.94;55.34;103151.22;5048669;28;20120;-84
2021/04/16 01:04:19;;;;;;;3.75;1.90;;;;;;;5.91;55.43;103159.00;5048793;28;20022;-84
2021/04/16 01:06:45;;;;;;;3.50;2.05;;;;;;;5.83;55.22;103162.25;5049247;28;20031;-84
2021/04/16 01:09:12;;;;;;;3.15;1.95;;;;;;;5.80;55.36;103161.22;5045329;28;20498;-84
2021/04/16 01:11:39;;;;;;;3.08;2.17;;;;;;;5.77;55.78;103161.09;5048226;28;20506;-84
2021/04/16 01:14:06;;;;;;;2.08;1.70;;;;;;;5.73;55.54;103165.38;5048179;28;20029;-84
2021/04/16 01:16:34;;;;;;;3.05;1.77;;;;;;;5.70;55.61;103172.25;5048326;28;20025;-84
2021/04/16 01:19:06;;;;;;;3.38;1.95;;;;;;;5.70;55.84;103160.00;5042903;28;20080;-84
2021/04/16 01:21:42;;;;;;;4.30;2.05;;;;;;;5.68;55.92;103166.91;5042928;28;20116;-84
2021/04/16 01:24:22;;;;;;;3.15;2.00;;;;;;;5.71;56.12;103166.13;5046416;28;20040;-84
2021/04/16 01:26:49;;;;;;;3.28;2.38;;;;;;;5.62;56.10;103161.41;5046291;28;20431;-84
2021/04/16 01:29:16;;;;;;;2.17;1.77;;;;;;;5.62;56.42;103162.34;5048113;28;20025;-84
2021/04/16 01:31:47;;;;;;;6.28;1.95;;;;;;;5.63;56.11;103163.22;5044702;28;20025;-84
2021/04/16 01:34:24;;;;;;;4.63;2.38;;;;;;;5.69;56.46;103158.19;5046678;28;20470;-84
2021/04/16 01:36:54;;;;;;;2.45;1.73;;;;;;;5.60;56.38;103165.75;5046466;28;20021;-84
2021/04/16 01:39:24;;;;;;;3.72;2.30;;;;;;;5.63;56.34;103168.47;5048045;28;20033;-84
2021/04/16 01:41:51;;;;;;;2.42;1.77;;;;;;;5.60;56.41;103166.63;5042192;28;20048;-84
2021/04/16 01:44:20;;;;;;;4.05;2.22;;;;;;;5.65;56.71;103169.44;5048037;28;20029;-84
2021/04/16 01:46:52;;;;;;;3.72;2.22;;;;;;;5.68;56.61;103161.66;5047745;28;20438;-84
2021/04/16 01:49:19;;;;;;;3.67;1.80;;;;;;;5.66;56.30;103171.25;5047624;28;20071;-84
2021/04/16 01:51:46;;;;;;;4.68;2.35;;;;;;;5.65;56.53;103166.81;5045287;28;20048;-84
2021/04/16 01:57:10;;;;;;;2.08;1.70;;;;;;;5.69;56.62;103162.56;5064917;27;20410;-84
2021/04/16 01:59:39;;;;;;;2.75;2.08;;;;;;;5.63;56.57;103166.75;5067386;28;20059;-83
2021/04/16 02:02:08;;;;;;;4.10;2.50;;;;;;;5.68;56.85;103164.28;5066461;28;20017;-84
2021/04/16 02:04:35;;;;;;;3.83;2.42;;;;;;;5.67;56.44;103168.66;5062454;28;20041;-84
2021/04/16 02:07:02;;;;;;;6.18;2.72;;;;;;;5.67;56.62;103160.78;5064337;28;20025;-83
2021/04/16 02:09:31;;;;;;;5.32;2.40;;;;;;;5.68;56.73;103161.66;5066540;28;20506;-84
2021/04/16 02:11:58;;;;;;;4.18;2.30;;;;;;;5.64;56.73;103160.63;5065808;28;20047;-84
2021/04/16 02:14:27;;;;;;;7.45;2.10;;;;;;;5.67;56.79;103159.88;5065894;28;20052;-83
2021/04/16 02:16:59;;;;;;;5.85;2.13;;;;;;;5.65;57.10;103156.28;5065188;28;20062;-84
2021/04/16 02:19:25;;;;;;;4.77;3.03;;;;;;;5.64;56.84;103154.50;5064574;28;20047;-85
2021/04/16 02:21:52;;;;;;;4.85;2.65;;;;;;;5.63;56.79;103158.88;5065671;28;20754;-84
2021/04/16 02:24:19;;;;;;;7.07;2.63;;;;;;;5.65;56.75;103161.56;5067143;28;20063;-84
2021/04/16 02:26:46;;;;;;;4.05;2.50;;;;;;;5.64;56.76;103155.38;5067797;28;20029;-84
2021/04/16 02:29:15;;;;;;;6.55;2.92;;;;;;;5.56;56.95;103150.66;5065898;28;20033;-84
2021/04/16 02:31:43;;;;;;;5.55;2.63;;;;;;;5.60;56.81;103148.22;5065715;28;20041;-84
2021/04/16 02:34:17;;;;;;;5.05;2.70;;;;;;;5.64;57.21;103144.84;5065612;28;20032;-84
2021/04/16 02:36:43;;;;;;;4.25;2.80;;;;;;;5.61;56.72;103146.50;5066902;28;20445;-84
2021/04/16 02:39:10;;;;;;;6.05;2.42;;;;;;;5.60;57.08;103149.97;5066778;28;20036;-84
2021/04/16 02:41:36;;;;;;;4.68;2.80;;;;;;;5.57;57.26;103153.38;5066474;28;20021;-84
2021/04/16 02:44:04;;;;;;;3.83;2.22;;;;;;;5.61;57.03;103151.78;5063425;28;20033;-84
2021/04/16 02:46:32;;;;;;;5.00;2.72;;;;;;;5.55;57.62;103147.16;5065793;28;20503;-83
2021/04/16 02:48:58;;;;;;;4.57;2.92;;;;;;;5.55;57.63;103148.91;5065332;28;20082;-84
2021/04/16 02:51:25;;;;;;;7.00;3.30;;;;;;;5.61;57.70;103144.75;5065792;28;20082;-84
2021/04/16 02:53:53;;;;;;;4.55;2.85;;;;;;;5.63;57.42;103136.91;5063759;28;20037;-84
2021/04/16 02:56:19;;;;;;;5.00;2.80;;;;;;;5.65;57.51;103140.50;5064838;28;20040;-84
2021/04/16 02:58:46;;;;;;;5.00;2.92;;;;;;;5.65;57.63;103135.25;5062804;28;20060;-84
2021/04/16 03:01:12;;;;;;;5.63;3.10;;;;;;;5.65;57.71;103135.25;5064588;28;20032;-84
2021/04/16 03:03:39;;;;;;;5.00;3.38;;;;;;;5.64;57.75;103139.59;5065675;28;20028;-83
2021/04/16 03:06:05;;;;;;;7.72;2.92;;;;;;;5.71;57.63;103132.84;5063690;28;20021;-84
2021/04/16 03:08:32;;;;;;;5.90;2.85;;;;;;;5.74;57.70;103138.22;5052419;28;20029;-83
2021/04/16 03:10:59;;;;;;;7.32;3.63;;;;;;;5.77;58.09;103135.72;5053145;28;20036;-83
2021/04/16 03:13:26;;;;;;;5.85;3.42;;;;;;;5.78;58.24;103136.59;5052408;28;20071;-84
2021/04/16 03:15:52;;;;;;;4.60;2.90;;;;;;;5.81;58.07;103134.09;5051713;28;20040;-84
2021/04/16 03:18:19;;;;;;;5.70;2.92;;;;;;;5.85;58.14;103132.47;5051721;28;20032;-84
2021/04/16 03:20:46;;;;;;;6.65;3.80;;;;;;;5.82;58.11;103130.63;5051114;28;20444;-84
2021/04/16 03:23:13;;;;;;;11.40;3.78;;;;;;;5.86;57.72;103134.22;5052590;28;20029;-83
2021/04/16 03:25:39;;;;;;;9.05;3.67;;;;;;;5.82;58.29;103122.72;5053990;28;20035;-84
2021/04/16 03:28:06;;;;;;;5.72;3.33;;;;;;;5.81;58.41;103124.44;5051469;28;20056;-84
2021/04/16 03:30:33;;;;;;;5.80;4.00;;;;;;;5.79;58.34;103128.75;5051808;28;20028;-84
2021/04/16 03:33:00;;;;;;;6.68;4.55;;;;;;;5.78;58.26;103134.88;5047623;28;20021;-84
2021/04/16 03:35:26;;;;;;;8.75;4.25;;;;;;;5.78;58.40;103129.63;5053124;28;20048;-84
2021/04/16 03:37:54;;;;;;;6.63;4.10;;;;;;;5.73;58.67;103128.56;5050964;28;20028;-84
2021/04/16 03:40:25;;;;;;;9.80;4.97;;;;;;;5.76;58.87;103128.66;5052300;28;20021;-84
2021/04/16 03:42:52;;;;;;;8.63;5.30;;;;;;;5.72;59.19;103134.66;5044348;28;20048;-83
2021/04/16 03:45:19;;;;;;;6.60;4.25;;;;;;;5.72;58.85;103131.09;5049600;28;20170;-84
2021/04/16 03:47:46;;;;;;;11.52;5.97;;;;;;;5.70;58.91;103125.78;5049418;28;20044;-84
2021/04/16 03:50:15;;;;;;;10.05;6.30;;;;;;;5.71;58.90;103130.22;5050239;28;20392;-84
2021/04/16 03:52:41;;;;;;;10.65;6.18;;;;;;;5.67;59.25;103136.22;5052201;28;20048;-84
2021/04/16 03:55:09;;;;;;;9.95;5.53;;;;;;;5.67;59.44;103130.97;5051259;28;20037;-84
2021/04/16 03:57:35;;;;;;;10.35;5.88;;;;;;;5.66;59.62;103131.78;5053041;28;20036;-84
2021/04/16 04:00:04;;;;;;;11.55;6.22;;;;;;;5.67;60.01;103134.47;5053057;28;20021;-84
2021/04/16 04:02:30;;;;;;;10.98;6.28;;;;;;;5.72;59.97;103136.38;5041775;28;20029;-84
2021/04/16 04:04:57;;;;;;;8.07;6.15;;;;;;;5.74;59.64;103132.94;5049309;28;20033;-84
2021/04/16 04:07:23;;;;;;;8.05;5.13;;;;;;;5.75;59.73;103137.38;5049476;28;20484;-84
2021/04/16 04:09:49;;;;;;;11.60;5.82;;;;;;;5.77;59.72;103130.44;5050024;28;20472;-84
2021/04/16 04:12:15;;;;;;;14.43;6.38;;;;;;;5.77;60.02;103137.44;5050766;28;20032;-84
2021/04/16 04:14:42;;;;;;;10.23;6.18;;;;;;;5.77;59.98;103133.09;5049405;28;20030;-84
2021/04/16 04:17:09;;;;;;;10.90;7.03;;;;;;;5.80;59.82;103133.19;5051134;28;20495;-84
2021/04/16 04:19:36;;;;;;;9.95;6.72;;;;;;;5.77;60.40;103140.97;5048990;28;20025;-84
2021/04/16 04:22:04;;;;;;;10.48;6.80;;;;;;;5.85;59.99;103133.34;5046359;28;20412;-84
2021/04/16 04:24:30;;;;;;;9.50;5.55;;;;;;;5.87;59.92;103136.94;5046456;28;20491;-84
2021/04/16 04:26:57;;;;;;;12.05;6.05;;;;;;;5.93;59.92;103136.25;5053117;28;20040;-84
2021/04/16 04:29:25;;;;;;;10.30;6.65;;;;;;;5.95;59.80;103138.09;5049911;28;20033;-83
2021/04/16 04:31:52;;;;;;;18.73;6.43;;;;;;;5.92;59.88;103137.09;5049016;28;20035;-84
2021/04/16 04:34:21;;;;;;;9.75;5.88;;;;;;;5.91;60.14;103137.97;5052892;28;20028;-84
2021/04/16 04:36:49;;;;;;;9.68;6.00;;;;;;;5.90;60.17;103136.16;5050369;28;20070;-84
2021/04/16 04:39:17;;;;;;;11.18;6.15;;;;;;;5.94;60.36;103138.06;5051301;28;20074;-84
2021/04/16 04:41:44;;;;;;;9.05;5.47;;;;;;;5.93;60.15;103136.25;5050334;28;20076;-84
2021/04/16 04:44:11;;;;;;;8.82;5.97;;;;;;;5.95;59.90;103131.97;5050917;28;20048;-84
2021/04/16 04:46:38;;;;;;;10.07;6.45;;;;;;;5.96;59.88;103136.38;5050700;28;20032;-84
2021/04/16 04:49:05;;;;;;;9.60;5.43;;;;;;;5.98;60.04;103133.00;5047224;28;20128;-83
2021/04/16 04:51:33;;;;;;;9.43;5.93;;;;;;;6.00;59.93;103135.69;5047327;28;20033;-83
2021/04/16 04:54:00;;;;;;;12.55;6.13;;;;;;;5.96;60.18;103131.13;5050773;28;20028;-84
2021/04/16 04:56:26;;;;;;;10.77;5.82;;;;;;;5.97;60.26;103135.56;5050589;28;20028;-84
2021/04/16 04:58:53;;;;;;;8.57;5.75;;;;;;;5.98;59.98;103135.63;5050884;28;20029;-84
2021/04/16 05:01:19;;;;;;;9.15;5.78;;;;;;;5.98;60.36;103133.00;5047755;28;20135;-84
2021/04/16 05:03:45;;;;;;;8.98;5.78;;;;;;;6.08;59.90;103133.31;5049366;28;20033;-84
2021/04/16 05:06:12;;;;;;;9.13;5.65;;;;;;;6.10;59.68;103127.25;5050511;28;20094;-84
2021/04/16 05:08:38;;;;;;;13.35;6.05;;;;;;;6.12;59.68;103128.22;5042975;28;20033;-84
2021/04/16 05:11:06;;;;;;;10.35;6.05;;;;;;;6.12;59.84;103133.47;5049035;28;20480;-84
2021/04/16 05:13:32;;;;;;;9.27;6.43;;;;;;;6.12;59.93;103130.84;5045849;28;20459;-85
2021/04/16 05:15:58;;;;;;;8.43;5.60;;;;;;;6.11;60.22;103133.44;5048013;28;20037;-83
2021/04/16 05:18:25;;;;;;;9.50;5.75;;;;;;;6.19;60.05;103133.69;5049900;28;20120;-84
2021/04/16 05:20:51;;;;;;;9.10;5.40;;;;;;;6.19;60.21;103133.69;5046425;28;20040;-84
2021/04/16 05:23:17;;;;;;;12.82;5.85;;;;;;;6.20;60.26;103133.75;5049734;28;20421;-83
2021/04/16 05:25:44;;;;;;;13.23;5.85;;;;;;;6.31;60.01;103134.13;5050543;28;20036;-84
2021/04/16 05:28:10;;;;;;;12.90;6.05;;;;;;;6.27;60.36;103135.75;5040343;28;20586;-85
2021/04/16 05:30:36;;;;;;;10.10;5.45;;;;;;;6.32;60.11;103141.19;5044511;28;20492;-85
2021/04/16 05:33:03;;;;;;;12.52;5.82;;;;;;;6.39;59.89;103140.56;5045986;28;20487;-85
2021/04/16 05:35:29;;;;;;;13.23;6.43;;;;;;;6.33;60.29;103143.00;5048000;28;20502;-85
2021/04/16 05:37:57;;;;;;;8.75;4.93;;;;;;;6.40;59.97;103147.59;5047583;28;20041;-84
2021/04/16 05:40:26;;;;;;;21.95;5.97;;;;;;;6.40;60.18;103139.69;5047452;28;20029;-84
2021/04/16 05:42:53;;;;;;;8.80;5.03;;;;;;;6.49;59.91;103144.38;5046761;28;20075;-84
2021/04/16 05:45:20;;;;;;;9.88;5.22;;;;;;;6.55;59.62;103148.97;5047641;28;20032;-83
2021/04/16 05:47:46;;;;;;;12.57;6.28;;;;;;;6.54;59.72;103147.19;5046730;28;20052;-84
2021/04/16 05:50:13;;;;;;;11.85;5.55;;;;;;;6.55;59.62;103138.44;5039289;28;20061;-85
2021/04/16 05:52:40;;;;;;;10.85;6.05;;;;;;;6.52;59.76;103135.69;5045701;28;20031;-85
2021/04/16 05:55:07;;;;;;;9.88;5.22;;;;;;;6.59;59.64;103141.25;5046165;28;20059;-84
2021/04/16 05:57:33;;;;;;;12.93;6.45;;;;;;;6.64;59.50;103141.38;5046488;28;20104;-84
2021/04/16 05:59:59;;;;;;;12.07;6.20;;;;;;;6.65;59.41;103137.91;5050250;28;20033;-84
2021/04/16 06:02:35;;;;;;;15.32;6.72;;;;;;;6.72;59.74;103137.25;5046075;28;20025;-93
2021/04/16 06:05:05;;;;;;;9.02;6.38;;;;;;;6.74;59.75;103138.22;5047009;28;20032;-85
2021/04/16 06:07:32;;;;;;;11.95;5.72;;;;;;;6.75;59.75;103137.38;5046439;28;20460;-85
2021/04/16 06:09:58;;;;;;;9.38;6.18;;;;;;;6.79;59.53;103139.25;5046561;28;20500;-84
2021/04/16 06:12:25;;;;;;;10.05;6.55;;;;;;;6.85;59.55;103142.94;5047091;28;20473;-84
2021/04/16 06:14:51;;;;;;;8.00;5.32;;;;;;;6.87;59.73;103146.53;5049850;28;20040;-84
2021/04/16 06:17:19;;;;;;;8.57;5.80;;;;;;;6.87;59.84;103143.91;5049099;28;20029;-84
2021/04/16 06:19:48;;;;;;;11.20;5.30;;;;;;;6.94;59.58;103145.84;5047081;28;20084;-84
2021/04/16 06:22:16;;;;;;;10.18;5.10;;;;;;;7.00;59.55;103148.69;5046161;28;20028;-84
2021/04/16 06:24:42;;;;;;;10.23;5.55;;;;;;;7.03;59.72;103143.53;5051132;28;20027;-84
2021/04/16 06:27:09;;;;;;;11.70;5.20;;;;;;;7.13;59.22;103148.25;5048381;28;20083;-84
2021/04/16 06:29:35;;;;;;;10.68;5.30;;;;;;;7.18;59.27;103152.75;5045889;28;20047;-84
2021/04/16 06:32:02;;;;;;;10.57;5.25;;;;;;;7.25;59.34;103145.09;5045737;28;20030;-85
2021/04/16 06:34:28;;;;;;;7.82;5.53;;;;;;;7.31;59.16;103141.75;5048395;28;20021;-84
2021/04/16 06:36:54;;;;;;;9.50;5.07;;;;;;;7.34;59.53;103143.56;5046824;28;20037;-84
2021/04/16 06:39:21;;;;;;;8.40;5.05;;;;;;;7.41;59.16;103149.09;5051263;28;20037;-84
2021/04/16 06:41:50;;;;;;;10.85;6.00;;;;;;;7.41;59.83;103146.47;5047790;28;20040;-85
2021/04/16 06:44:23;;;;;;;10.77;4.65;;;;;;;7.54;59.60;103149.44;5054205;28;20054;-84
2021/04/16 06:46:52;;;;;;;8.85;4.70;;;;;;;7.60;59.39;103147.00;5051438;28;20053;-84
2021/04/16 06:52:29;;;;;;;8.10;4.45;;;;;;;7.82;59.09;103142.34;5063073;27;20413;-84
2021/04/16 06:55:11;;;;;;;10.88;5.18;;;;;;;7.91;59.15;103148.78;5039631;28;20037;-86
2021/04/16 07:06:00;;;;;;;9.43;5.05;;;;;;;8.11;59.41;103145.78;5081387;28;20414;-84
2021/04/16 07:08:49;;;;;;;8.52;5.38;;;;;;;8.18;59.04;103149.50;5069879;28;20056;-83
2021/04/16 07:11:25;;;;;;;9.27;4.93;;;;;;;8.21;59.13;103146.94;5059657;28;20500;-83
2021/04/16 07:13:52;;;;;;;8.98;5.45;;;;;;;8.29;58.54;103142.75;5048533;28;20060;-82
2021/04/16 07:16:22;;;;;;;8.73;5.50;;;;;;;8.31;59.29;103138.44;5048152;28;20056;-86
2021/04/16 07:18:53;;;;;;;8.50;6.35;;;;;;;8.43;58.61;103143.13;5043600;28;20029;-84
2021/04/16 07:21:22;;;;;;;10.20;5.00;;;;;;;8.51;58.73;103148.63;5048167;28;20169;-84
2021/04/16 07:24:00;;;;;;;15.05;7.25;;;;;;;8.63;58.38;103141.00;5048358;28;20420;-84
2021/04/16 07:29:37;;;;;;;9.25;4.47;;;;;;;8.71;59.06;103152.69;5074286;27;20440;-84
2021/04/16 07:32:04;;;;;;;10.55;5.18;;;;;;;8.86;58.71;103143.31;5067668;28;20039;-83
2021/04/16 07:34:36;;;;;;;10.98;6.07;;;;;;;8.93;58.81;103150.56;5049618;28;20365;-85
2021/04/16 07:40:05;;;;;;;9.38;5.13;;;;;;;9.10;58.69;103147.41;5072960;28;20459;-84
2021/04/16 07:42:49;;;;;;;21.92;5.00;;;;;;;9.29;58.59;103139.03;5054231;28;20409;-83
2021/04/16 07:51:09;;;;;;;13.30;3.78;;;;;;;9.55;58.56;103133.44;5077066;27;20420;-84
2021/04/16 07:59:05;;;;;;;6.72;3.90;;;;;;;9.94;57.79;103140.38;5064686;28;20425;-84
2021/04/16 08:01:34;;;;;;;9.00;3.88;;;;;;;9.99;57.91;103144.03;5059730;28;20483;-84
2021/04/16 08:04:04;;;;;;;13.63;4.47;;;;;;;10.08;57.73;103131.81;5041489;28;20091;-84
2021/04/16 08:06:38;;;;;;;8.85;4.32;;;;;;;10.22;56.92;103140.91;5048267;28;20104;-85
2021/04/16 08:09:26;;;;;;;12.98;4.85;;;;;;;10.17;56.65;103145.25;5045424;28;20108;-87
2021/04/16 08:12:13;;;;;;;12.88;4.93;;;;;;;10.49;56.17;103142.28;5035222;28;20065;-85
2021/04/16 08:14:42;;;;;;;7.95;4.80;;;;;;;10.48;55.77;103140.50;5043075;28;20041;-85
2021/04/16 08:20:10;;;;;;;11.52;5.53;;;;;;;10.57;55.52;103143.34;5079960;27;21447;-87
2021/04/16 08:22:37;;;;;;;14.73;5.55;;;;;;;10.68;55.12;103135.56;5046341;28;20037;-88
2021/04/16 08:25:13;;;;;;;14.65;5.97;;;;;;;10.82;55.09;103143.75;5039473;28;20032;-89
2021/04/16 08:33:41;;;;;;;11.32;6.70;;;;;;;11.10;52.98;103130.88;5069106;27;20421;-86
2021/04/16 08:41:56;;;;;;;13.20;5.45;;;;;;;11.42;51.89;103131.34;5063227;27;20433;-85
2021/04/16 08:44:24;;;;;;;18.88;8.30;;;;;;;11.44;51.58;103123.38;5063314;28;20033;-85
2021/04/16 08:46:54;;;;;;;12.73;5.00;;;;;;;11.56;51.47;103126.19;5062663;28;20423;-83
2021/04/16 08:52:16;;;;;;;10.00;4.47;;;;;;;11.82;50.88;103126.53;5066365;27;20905;-89
2021/04/16 08:54:46;;;;;;;7.30;4.10;;;;;;;11.84;49.82;103126.53;5032163;28;20057;-86
2021/04/16 09:00:09;;;;;;;7.80;3.80;;;;;;;12.22;47.56;103122.53;5057404;27;20426;-86
2021/04/16 09:02:48;;;;;;;9.18;3.88;;;;;;;12.32;47.97;103121.75;5032826;28;20032;-86
2021/04/16 09:05:22;;;;;;;8.98;4.45;;;;;;;12.42;48.06;103112.09;5039606;28;20476;-85
2021/04/16 09:07:58;;;;;;;7.35;3.80;;;;;;;12.57;47.99;103117.56;5049332;28;20029;-84
2021/04/16 09:13:11;;;;;;;6.85;3.35;;;;;;;12.57;46.61;103111.31;5071156;27;20468;-82
2021/04/16 09:15:41;;;;;;;6.55;3.30;;;;;;;12.81;46.28;103107.97;5041872;28;20026;-81
2021/04/16 09:18:22;;;;;;;9.52;3.45;;;;;;;12.82;45.31;103109.72;5054443;28;20101;-81
2021/04/16 09:23:52;;;;;;;10.05;3.22;;;;;;;12.97;43.85;103106.28;5071327;28;20368;-81
2021/04/16 09:32:30;;;;;;;4.28;2.55;;;;;;;13.29;40.59;103108.25;5066198;28;21021;-81
2021/04/16 09:34:56;;;;;;;5.03;2.53;;;;;;;13.22;41.04;103107.34;5060947;28;20384;-82
2021/04/16 09:40:27;;;;;;;4.10;2.13;;;;;;;13.19;40.89;103107.28;5064977;27;20417;-82
2021/04/16 09:45:52;;;;;;;3.88;2.40;;;;;;;13.06;40.72;103094.78;5070449;28;20455;-81
2021/04/16 09:54:23;;;;;;;4.70;2.10;;;;;;;13.82;38.76;103085.41;5064990;28;20990;-82
2021/04/16 09:59:48;;;;;;;2.50;1.80;;;;;;;13.97;37.64;103089.88;5074704;27;20170;-83
2021/04/16 10:05:11;;;;;;;5.55;1.80;;;;;;;14.20;37.47;103079.22;5070620;28;20432;-83
2021/04/16 10:07:56;;;;;;;3.63;1.73;;;;;;;14.26;37.67;103082.78;5065493;28;20064;-86
2021/04/16 10:10:42;;;;;;;3.75;2.13;;;;;;;14.36;36.19;103079.22;5067197;28;20033;-82
2021/04/16 10:13:31;;;;;;;5.47;1.77;;;;;;;14.56;36.32;103072.09;5050384;28;20459;-82
2021/04/16 10:15:59;;;;;;;3.78;1.73;;;;;;;14.59;35.58;103073.00;5042286;28;20497;-81
2021/04/16 10:21:22;;;;;;;2.97;1.60;;;;;;;14.87;33.45;103066.75;5078705;27;20490;-81
2021/04/16 10:24:33;;;;;;;2.28;1.33;;;;;;;14.92;33.86;103058.72;5028006;28;20427;-82
2021/04/16 10:30:52;;;;;;;1.95;1.27;;;;;;;15.09;33.91;103052.44;5048018;28;20135;-82
2021/04/16 10:33:51;;;;;;;2.47;1.30;;;;;;;15.14;33.04;103048.88;5048853;28;20145;-83
2021/04/16 10:43:20;;;;;;;3.25;1.50;;;;;;;15.47;33.08;103056.75;5039503;28;20396;-82
2021/04/16 10:51:38;;;;;;;3.63;1.73;;;;;;;15.62;32.51;103043.28;5066453;28;20045;-82
2021/04/16 11:20:10;;;;;;;4.13;2.13;;;;;;;16.74;32.19;103024.53;5071546;27;21838;-82
2021/04/16 12:39:51;;;;;;;3.05;1.25;;;;;;;17.96;27.35;102971.13;5041790;28;20034;-80
2021/04/16 12:42:18;;;;;;;1.60;1.40;;;;;;;17.91;27.45;102973.84;5041050;28;20041;-80
2021/04/16 12:50:05;;;;;;;4.35;1.60;;;;;;;18.22;27.73;102967.09;5127932;27;897462;-79
2021/04/16 12:52:32;;;;;;;4.03;2.40;;;;;;;18.20;27.90;102961.72;5120334;27;20028;-79
2021/04/16 12:54:58;;;;;;;2.50;1.52;;;;;;;18.28;27.87;102972.34;5124280;27;20027;-79
2021/04/16 12:57:46;;;;;;;3.25;1.60;;;;;;;18.27;28.19;102967.88;5125793;28;20062;-80
2021/04/16 13:05:48;;;;;;;5.70;1.73;;;;;;;18.29;28.54;102963.34;5081979;28;20435;-80
2021/04/16 13:08:14;;;;;;;4.38;1.50;;;;;;;18.21;28.26;102958.13;5064063;28;20033;-78
2021/04/16 13:10:41;;;;;;;2.78;1.83;;;;;;;18.06;27.55;102959.31;5065089;28;20020;-78
2021/04/16 13:13:07;;;;;;;5.88;2.05;;;;;;;18.10;28.02;102955.66;5051929;28;20376;-78
2021/04/16 13:15:33;;;;;;;3.83;2.17;;;;;;;18.13;28.05;102952.06;5049099;28;20037;-79
2021/04/16 13:18:04;;;;;;;7.50;2.28;;;;;;;18.22;27.95;102953.69;5045712;28;20488;-79
2021/04/16 13:20:34;;;;;;;2.83;1.95;;;;;;;18.29;28.46;102958.00;5049446;28;20034;-78
2021/04/16 13:23:00;;;;;;;6.00;2.30;;;;;;;18.38;28.00;102951.56;5042558;28;20033;-79
2021/04/16 13:25:29;;;;;;;3.15;1.98;;;;;;;18.53;28.70;102943.22;5045772;28;20037;-79
2021/04/16 13:27:55;;;;;;;4.60;1.90;;;;;;;18.53;29.12;102939.63;5049490;28;20035;-80
2021/04/16 13:30:26;;;;;;;3.28;2.13;;;;;;;18.54;29.39;102946.78;5049171;28;20033;-79
2021/04/16 13:32:56;;;;;;;4.68;2.03;;;;;;;18.62;29.16;102944.84;5049668;28;20092;-79
2021/04/16 13:35:32;;;;;;;3.28;2.10;;;;;;;18.70;28.49;102942.00;5049301;28;20033;-80
2021/04/16 13:38:03;;;;;;;4.35;1.90;;;;;;;18.86;28.93;102939.88;5048247;28;20025;-79
2021/04/16 13:40:31;;;;;;;3.72;2.13;;;;;;;18.70;29.26;102942.00;5048378;28;20476;-80
2021/04/16 13:42:58;;;;;;;4.80;2.13;;;;;;;18.95;29.40;102937.00;5046650;28;20021;-80
2021/04/16 13:45:24;;;;;;;3.30;2.30;;;;;;;19.03;28.83;102935.03;5049066;28;20026;-81
2021/04/16 13:47:51;;;;;;;3.90;2.17;;;;;;;19.01;28.40;102931.50;5048589;28;20178;-82
2021/04/16 13:50:19;;;;;;;4.82;3.10;;;;;;;19.03;28.09;102924.31;5048870;28;20472;-82
2021/04/16 13:52:46;;;;;;;5.53;2.25;;;;;;;19.04;28.25;102923.38;5048866;28;20383;-81
2021/04/16 13:55:15;;;;;;;4.65;2.58;;;;;;;19.01;28.36;102925.25;5045248;28;20069;-82
2021/04/16 13:57:42;;;;;;;3.30;2.30;;;;;;;19.10;28.14;102924.16;5047818;28;20025;-82
2021/04/16 14:00:13;;;;;;;2.92;1.98;;;;;;;19.18;27.31;102914.13;5048621;28;20032;-82
2021/04/16 14:02:46;;;;;;;2.88;1.85;;;;;;;19.15;28.03;102916.88;5048774;28;20140;-82
2021/04/16 14:05:17;;;;;;;3.25;1.70;;;;;;;19.20;27.93;102910.50;5048492;28;20044;-82
2021/04/16 14:07:44;;;;;;;3.35;1.40;;;;;;;19.30;28.18;102911.16;5048447;28;20059;-81
2021/04/16 14:10:11;;;;;;;4.20;2.33;;;;;;;19.43;28.02;102918.91;5048716;28;20095;-82
2021/04/16 14:12:37;;;;;;;3.60;1.75;;;;;;;19.52;27.89;102906.13;5048559;28;20037;-82
2021/04/16 14:15:05;;;;;;;2.70;1.60;;;;;;;19.48;27.47;102911.63;5046208;28;20059;-81
2021/04/16 14:17:41;;;;;;;5.65;1.98;;;;;;;19.55;26.94;102913.22;5029451;28;20033;-82
2021/04/16 14:20:17;;;;;;;5.40;2.08;;;;;;;19.40;26.58;102910.00;5028418;28;20041;-82
2021/04/16 14:22:47;;;;;;;3.75;2.17;;;;;;;19.45;27.22;102899.16;5030199;28;20021;-82
2021/04/16 14:25:21;;;;;;;5.88;2.10;;;;;;;19.69;27.34;102891.38;5035011;28;20053;-82
2021/04/16 14:27:48;;;;;;;3.22;1.60;;;;;;;19.63;26.84;102892.41;5029888;28;20051;-82
2021/04/16 14:30:21;;;;;;;2.75;1.90;;;;;;;19.83;26.68;102889.22;5035048;28;20030;-82
2021/04/16 14:32:52;;;;;;;3.70;1.60;;;;;;;19.98;26.57;102892.44;5030122;28;20389;-82
2021/04/16 14:35:20;;;;;;;2.60;1.70;;;;;;;20.01;26.96;102879.78;5035021;28;20037;-82
2021/04/16 14:37:46;;;;;;;2.35;1.80;;;;;;;20.10;26.73;102880.44;5034687;28;20092;-82
2021/04/16 14:40:14;;;;;;;2.90;1.80;;;;;;;20.15;26.72;102875.81;5034815;28;20030;-82
2021/04/16 14:42:42;;;;;;;4.32;2.05;;;;;;;20.26;26.63;102880.91;5035033;28;20068;-83
2021/04/16 14:45:11;;;;;;;2.88;1.58;;;;;;;20.27;26.24;102869.22;5033315;28;20491;-83
2021/04/16 14:47:38;;;;;;;6.63;2.28;;;;;;;20.26;26.53;102872.84;5034911;28;20025;-83
2021/04/16 14:50:11;;;;;;;2.33;1.80;;;;;;;20.35;26.57;102867.19;5034663;28;20112;-82
2021/04/16 14:52:37;;;;;;;3.20;2.05;;;;;;;20.27;26.24;102862.00;5034370;28;20022;-81
2021/04/16 14:55:12;;;;;;;3.13;2.10;;;;;;;20.27;26.26;102864.69;5034620;28;20526;-80
2021/04/16 14:57:40;;;;;;;4.78;1.80;;;;;;;20.24;26.60;102862.13;5033960;28;20161;-81
2021/04/16 15:00:11;;;;;;;5.20;1.90;;;;;;;20.41;26.23;102863.44;5033692;28;20036;-80
2021/04/16 15:02:38;;;;;;;4.05;2.10;;;;;;;20.27;26.00;102867.41;5030447;28;20420;-81
2021/04/16 15:05:06;;;;;;;2.95;1.77;;;;;;;20.43;26.25;102856.19;5032119;28;20090;-81
2021/04/16 15:07:39;;;;;;;3.78;1.95;;;;;;;20.45;26.19;102854.31;5033633;28;20029;-81
2021/04/16 15:10:08;;;;;;;4.68;1.83;;;;;;;20.49;26.54;102850.63;5034068;28;20025;-81
2021/04/16 15:12:41;;;;;;;2.78;2.15;;;;;;;20.63;26.19;102861.84;5033875;28;20036;-81
2021/04/16 15:15:07;;;;;;;;;;;;;;;20.98;25.65;102849.13;5034335;28;20059;-81
2021/04/16 15:17:34;;;;;;;3.03;1.40;;;;;;;20.60;26.12;102851.19;5033472;28;19913;-81